Time;durP1;ratioP1;P1;durP2;ratioP2;P2;SDS_P1;SDS_P2;PMS_P1;PMS_P2;Temp;Humidity;BMP_temperature;BMP_pressure;BME280_temperature;BME280_humidity;BME280_pressure;Samples;Min_cycle;Max_cycle;Signal;HPM_P1;HPM_P2
2023/10/03 00:00:24;;;;;;;28.33;9.93;;;;;;;27.67;44.43;100845.31;4983860;28;20546;-61
2023/10/03 00:02:55;;;;;;;28.77;9.13;;;;;;;27.75;44.52;100836.69;4968345;28;20038;-61
2023/10/03 00:05:24;;;;;;;25.77;9.82;;;;;;;27.80;43.92;100828.56;4991300;28;20065;-60
2023/10/03 00:07:53;;;;;;;25.83;9.65;;;;;;;27.88;44.45;100825.44;4994170;28;20026;-61
2023/10/03 00:10:19;;;;;;;24.65;9.05;;;;;;;27.94;43.39;100829.97;4993926;28;20044;-61
2023/10/03 00:12:48;;;;;;;28.33;9.60;;;;;;;28.00;44.39;100828.97;4993693;28;20058;-61
2023/10/03 00:15:17;;;;;;;22.13;8.73;;;;;;;28.06;43.43;100811.50;4977897;28;20047;-62
2023/10/03 00:17:44;;;;;;;25.75;9.45;;;;;;;28.11;43.42;100814.38;4993844;28;20046;-61
2023/10/03 00:20:16;;;;;;;22.77;8.52;;;;;;;28.16;43.65;100806.22;5010040;28;20412;-62
2023/10/03 00:22:50;;;;;;;22.65;9.20;;;;;;;28.21;43.05;100798.06;4993704;28;20043;-62
2023/10/03 00:25:19;;;;;;;27.45;9.88;;;;;;;28.26;43.15;100792.63;4993500;28;20066;-61
2023/10/03 00:27:46;;;;;;;24.50;9.18;;;;;;;28.28;42.75;100781.38;4993605;28;20126;-62
2023/10/03 00:30:15;;;;;;;29.17;8.93;;;;;;;28.33;43.17;100794.41;4993318;28;20073;-61
2023/10/03 00:32:42;;;;;;;25.20;8.85;;;;;;;28.39;42.44;100796.19;4994676;28;20034;-61
2023/10/03 00:35:08;;;;;;;24.30;9.43;;;;;;;28.41;42.58;100788.50;4993246;28;20087;-61
2023/10/03 00:37:34;;;;;;;30.48;9.80;;;;;;;28.44;42.48;100788.84;4993320;28;20030;-61
2023/10/03 00:40:00;;;;;;;22.67;8.57;;;;;;;28.48;42.55;100783.66;4992996;28;20062;-61
2023/10/03 00:42:25;;;;;;;23.67;8.23;;;;;;;28.51;42.69;100774.91;4993059;28;20042;-61
2023/10/03 00:44:51;;;;;;;24.30;8.75;;;;;;;28.56;41.79;100777.78;4994346;28;20100;-60
2023/10/03 00:47:16;;;;;;;24.25;7.50;;;;;;;28.59;42.80;100774.50;4993060;28;20034;-61
2023/10/03 00:49:43;;;;;;;26.52;8.10;;;;;;;28.60;42.18;100773.41;4989691;28;20047;-61
2023/10/03 00:52:09;;;;;;;24.40;8.20;;;;;;;28.62;42.34;100760.22;4973527;28;20042;-61
2023/10/03 00:54:36;;;;;;;24.17;9.02;;;;;;;28.66;41.51;100761.44;4973508;28;20517;-62
2023/10/03 00:57:01;;;;;;;17.95;8.23;;;;;;;28.68;41.59;100760.09;4974782;28;20050;-61
2023/10/03 00:59:28;;;;;;;17.38;7.45;;;;;;;28.71;41.43;100747.72;4973423;28;20035;-61
2023/10/03 01:02:03;;;;;;;21.58;7.15;;;;;;;28.73;41.97;100742.78;4972749;28;20109;-61
2023/10/03 01:04:32;;;;;;;20.10;7.97;;;;;;;28.76;41.34;100750.56;4974577;28;20039;-61
2023/10/03 01:06:59;;;;;;;23.17;8.50;;;;;;;28.78;41.71;100745.66;4973595;28;20499;-61
2023/10/03 01:09:28;;;;;;;21.90;7.03;;;;;;;28.82;41.76;100738.53;4973479;28;20164;-61
2023/10/03 01:11:54;;;;;;;22.23;8.45;;;;;;;28.84;41.71;100714.28;4973110;28;20031;-61
2023/10/03 01:14:19;;;;;;;23.00;7.50;;;;;;;28.88;41.97;100709.94;4973309;28;20056;-61
2023/10/03 01:16:45;;;;;;;23.27;7.43;;;;;;;28.88;40.79;100704.44;4973056;28;20129;-62
2023/10/03 01:19:16;;;;;;;19.33;6.13;;;;;;;28.89;41.21;100693.13;4973171;28;20027;-61
2023/10/03 01:21:41;;;;;;;21.95;7.43;;;;;;;28.90;41.14;100702.25;4972877;28;20031;-62
2023/10/03 01:24:09;;;;;;;19.77;7.55;;;;;;;28.91;41.72;100692.88;4972886;28;20034;-60
2023/10/03 01:26:34;;;;;;;18.05;7.30;;;;;;;28.92;40.75;100699.25;4972969;28;20479;-61
2023/10/03 01:29:00;;;;;;;18.80;7.22;;;;;;;28.93;41.63;100687.94;4956824;28;20058;-61
2023/10/03 01:31:27;;;;;;;17.23;7.13;;;;;;;28.94;41.10;100686.88;4974487;28;20034;-61
2023/10/03 01:33:52;;;;;;;20.77;6.85;;;;;;;28.95;41.58;100694.03;4971703;28;20023;-61
2023/10/03 01:36:19;;;;;;;24.35;7.72;;;;;;;28.94;41.66;100700.66;4972857;28;20033;-61
2023/10/03 01:38:45;;;;;;;20.67;7.97;;;;;;;28.93;40.77;100690.72;4973971;28;20030;-61
2023/10/03 01:41:12;;;;;;;19.40;7.65;;;;;;;28.93;40.50;100684.34;4972168;28;20393;-61
2023/10/03 01:43:43;;;;;;;23.83;7.55;;;;;;;28.92;40.53;100679.94;4972828;28;20019;-61
2023/10/03 01:46:09;;;;;;;21.70;7.70;;;;;;;28.94;40.57;100663.97;4972868;28;20026;-61
2023/10/03 01:48:36;;;;;;;18.67;7.40;;;;;;;28.93;40.57;100667.81;4973883;28;20047;-62
2023/10/03 01:51:02;;;;;;;18.73;7.03;;;;;;;28.93;40.51;100674.16;4972961;28;20034;-61
2023/10/03 01:53:29;;;;;;;19.38;7.55;;;;;;;28.92;40.33;100678.03;4973984;28;20030;-62
2023/10/03 01:55:55;;;;;;;21.77;7.43;;;;;;;28.90;40.89;100680.19;4956724;28;20375;-62
2023/10/03 01:58:23;;;;;;;17.90;6.70;;;;;;;28.86;40.65;100673.50;4973802;28;20039;-61
2023/10/03 02:00:50;;;;;;;17.75;6.93;;;;;;;28.86;40.68;100656.97;4974042;28;20104;-61
2023/10/03 02:03:16;;;;;;;18.42;6.88;;;;;;;28.84;40.32;100657.19;4973573;28;20039;-63
2023/10/03 02:05:42;;;;;;;19.95;7.80;;;;;;;28.85;40.84;100660.81;4989238;28;20035;-61
2023/10/03 02:08:10;;;;;;;18.80;6.88;;;;;;;28.81;40.43;100656.91;4972450;28;20026;-61
2023/10/03 02:10:35;;;;;;;20.35;7.57;;;;;;;28.82;40.35;100661.31;4972522;28;20038;-61
2023/10/03 02:13:09;;;;;;;22.35;7.53;;;;;;;28.79;40.49;100646.09;4972209;28;20035;-62
2023/10/03 02:15:36;;;;;;;19.92;6.85;;;;;;;28.80;41.38;100642.25;4960030;28;20038;-61
2023/10/03 02:18:03;;;;;;;19.40;7.03;;;;;;;28.80;40.81;100644.19;4975359;28;20043;-61
2023/10/03 02:20:30;;;;;;;16.70;6.43;;;;;;;28.77;40.86;100640.00;4976434;28;20033;-62
2023/10/03 02:22:56;;;;;;;19.08;6.88;;;;;;;28.78;40.75;100649.94;4976083;28;20517;-61
2023/10/03 02:25:29;;;;;;;15.70;6.28;;;;;;;28.76;41.01;100643.00;4960265;28;20042;-61
2023/10/03 02:27:56;;;;;;;15.93;7.47;;;;;;;28.74;40.61;100642.44;4958866;28;20045;-61
2023/10/03 02:30:25;;;;;;;19.35;6.57;;;;;;;28.75;40.59;100635.84;4976110;28;20426;-61
2023/10/03 02:32:55;;;;;;;18.02;5.80;;;;;;;28.73;40.45;100640.75;4944526;28;20027;-61
2023/10/03 02:35:22;;;;;;;16.27;6.05;;;;;;;28.70;41.29;100647.59;4976101;28;20038;-61
2023/10/03 02:37:49;;;;;;;17.35;6.88;;;;;;;28.70;40.54;100630.25;4976279;28;20053;-61
2023/10/03 02:40:15;;;;;;;17.05;6.32;;;;;;;28.69;41.40;100620.31;4976001;28;20085;-61
2023/10/03 02:42:41;;;;;;;20.63;7.70;;;;;;;28.70;40.80;100624.75;4975977;28;20450;-62
2023/10/03 02:45:08;;;;;;;15.90;6.95;;;;;;;28.70;40.34;100627.50;4975992;28;20498;-62
2023/10/03 02:47:36;;;;;;;21.60;7.32;;;;;;;28.69;40.25;100634.09;4976035;28;20034;-61
2023/10/03 02:50:01;;;;;;;22.80;7.30;;;;;;;28.70;40.34;100621.97;4960174;28;20066;-62
2023/10/03 02:52:27;;;;;;;17.17;6.93;;;;;;;28.69;40.60;100623.06;4975931;28;20035;-62
2023/10/03 02:54:52;;;;;;;18.10;6.13;;;;;;;28.68;40.49;100621.38;4976813;28;20034;-62
2023/10/03 02:57:18;;;;;;;18.80;7.45;;;;;;;28.65;41.22;100628.22;4974838;28;20038;-61
2023/10/03 02:59:44;;;;;;;15.98;6.65;;;;;;;28.65;40.83;100624.63;4977085;28;20039;-61
2023/10/03 03:02:13;;;;;;;19.15;6.53;;;;;;;28.64;40.41;100632.09;4959491;28;20037;-61
2023/10/03 03:04:41;;;;;;;19.45;6.47;;;;;;;28.62;41.35;100649.91;4975873;28;20051;-61
2023/10/03 03:07:06;;;;;;;12.50;5.78;;;;;;;28.61;41.12;100653.78;4959621;28;20038;-61
2023/10/03 03:09:36;;;;;;;12.77;5.45;;;;;;;28.59;40.50;100650.41;4975558;28;20039;-61
2023/10/03 03:12:02;;;;;;;17.48;7.22;;;;;;;28.55;41.70;100666.66;4975414;28;20610;-61
2023/10/03 03:14:27;;;;;;;16.40;6.55;;;;;;;28.53;40.58;100656.97;4975536;28;20065;-61
2023/10/03 03:16:53;;;;;;;16.02;5.97;;;;;;;28.49;41.45;100673.16;4976615;28;20035;-61
2023/10/03 03:19:20;;;;;;;21.55;7.25;;;;;;;28.48;41.12;100659.63;4975367;28;20034;-61
2023/10/03 03:21:46;;;;;;;18.73;6.72;;;;;;;28.47;40.58;100672.59;4959200;28;20034;-61
2023/10/03 03:24:18;;;;;;;17.15;6.35;;;;;;;28.44;40.91;100666.72;4976407;28;20046;-61
2023/10/03 03:26:47;;;;;;;16.08;6.00;;;;;;;28.43;41.84;100678.84;4975104;28;20098;-61
2023/10/03 03:29:20;;;;;;;18.48;6.20;;;;;;;28.40;41.50;100687.59;4959564;28;20035;-61
2023/10/03 03:31:46;;;;;;;19.80;6.10;;;;;;;28.40;41.94;100684.84;4975262;28;20503;-61
2023/10/03 03:34:11;;;;;;;22.90;6.63;;;;;;;28.38;40.78;100682.34;4975005;28;20035;-61
2023/10/03 03:36:40;;;;;;;16.02;5.90;;;;;;;28.37;40.92;100680.66;4976556;28;20038;-61
2023/10/03 03:39:13;;;;;;;12.80;5.88;;;;;;;28.35;41.04;100698.53;4976196;28;20038;-62
2023/10/03 03:41:39;;;;;;;15.40;6.07;;;;;;;28.31;41.55;100692.69;5096366;23;20124;-61
2023/10/03 03:44:11;;;;;;;13.85;5.28;;;;;;;28.28;42.03;100694.00;4997567;28;20478;-61
2023/10/03 03:46:37;;;;;;;16.48;6.03;;;;;;;28.27;41.83;100697.88;5014173;28;20033;-61
2023/10/03 03:49:04;;;;;;;15.00;5.60;;;;;;;28.25;41.21;100707.47;5015213;28;20406;-60
2023/10/03 03:51:30;;;;;;;19.05;6.07;;;;;;;28.23;42.47;100715.97;5013697;28;20042;-64
2023/10/03 03:53:56;;;;;;;15.68;6.93;;;;;;;28.18;41.56;100715.88;4997208;28;20038;-62
2023/10/03 03:56:21;;;;;;;17.95;6.07;;;;;;;28.16;41.91;100712.56;5013478;28;20156;-61
2023/10/03 03:58:48;;;;;;;14.35;5.70;;;;;;;28.14;42.57;100711.13;4997147;28;20049;-61
2023/10/03 04:01:15;;;;;;;12.35;5.00;;;;;;;28.11;42.27;100703.34;5014771;28;20022;-61
2023/10/03 04:03:45;;;;;;;13.45;5.55;;;;;;;28.07;41.91;100707.69;5012574;28;20029;-61
2023/10/03 04:06:11;;;;;;;19.25;5.85;;;;;;;28.05;42.38;100713.44;5013481;28;20104;-61
2023/10/03 04:08:38;;;;;;;18.27;6.53;;;;;;;28.04;42.50;100692.47;5013523;28;20048;-61
2023/10/03 04:11:05;;;;;;;14.20;5.50;;;;;;;28.03;42.59;100699.06;5013376;28;20034;-61
2023/10/03 04:13:35;;;;;;;17.85;5.90;;;;;;;28.00;42.38;100694.00;4993772;28;20031;-61
2023/10/03 04:16:00;;;;;;;13.90;5.53;;;;;;;28.04;42.04;100698.00;4993651;28;20048;-61
2023/10/03 04:18:26;;;;;;;15.32;5.68;;;;;;;28.05;41.81;100705.19;4994801;28;20109;-61
2023/10/03 04:20:53;;;;;;;16.63;6.28;;;;;;;28.07;42.01;100714.03;5010020;28;20045;-61
2023/10/03 04:23:19;;;;;;;15.05;6.15;;;;;;;28.06;42.54;100709.59;5010188;28;20038;-62
2023/10/03 04:25:44;;;;;;;20.13;6.22;;;;;;;28.03;42.90;100710.06;5009596;28;20389;-62
2023/10/03 04:28:11;;;;;;;12.57;5.47;;;;;;;28.01;43.04;100709.47;5009844;28;20459;-61
2023/10/03 04:30:39;;;;;;;14.25;5.03;;;;;;;27.98;42.17;100704.44;5009591;28;20442;-62
2023/10/03 04:33:05;;;;;;;15.50;5.60;;;;;;;27.95;43.22;100710.44;5009483;28;20034;-61
2023/10/03 04:35:30;;;;;;;15.32;5.47;;;;;;;27.95;43.20;100720.63;4993392;28;20030;-61
2023/10/03 04:37:57;;;;;;;14.88;5.43;;;;;;;27.91;42.80;100712.03;4993724;28;20458;-61
2023/10/03 04:40:35;;;;;;;15.40;5.40;;;;;;;27.91;43.43;100713.94;4993123;28;20038;-61
2023/10/03 04:43:07;;;;;;;16.52;5.00;;;;;;;27.89;43.20;100724.38;4993330;28;20045;-61
2023/10/03 04:45:35;;;;;;;16.15;5.55;;;;;;;27.90;42.94;100735.13;5008765;28;20093;-61
2023/10/03 04:48:01;;;;;;;20.98;6.63;;;;;;;27.88;43.08;100720.78;4977489;28;20081;-61
2023/10/03 04:50:26;;;;;;;13.20;5.53;;;;;;;27.85;43.43;100721.28;5009788;28;20118;-62
2023/10/03 04:52:55;;;;;;;12.93;5.63;;;;;;;27.83;43.24;100739.13;4992983;28;20117;-61
2023/10/03 04:55:23;;;;;;;20.05;5.53;;;;;;;27.81;43.05;100717.31;4993100;28;20045;-61
2023/10/03 04:57:50;;;;;;;14.43;6.28;;;;;;;27.80;43.29;100745.97;4992969;28;20084;-61
2023/10/03 05:00:17;;;;;;;15.75;5.85;;;;;;;27.77;43.51;100735.44;4994210;28;20030;-62
2023/10/03 05:02:47;;;;;;;15.82;4.95;;;;;;;27.69;43.77;100738.56;4994161;28;20034;-61
2023/10/03 05:05:18;;;;;;;12.88;5.45;;;;;;;27.63;43.88;100756.06;4993002;28;20158;-61
2023/10/03 05:07:44;;;;;;;9.50;4.53;;;;;;;27.58;43.17;100744.94;4993204;28;20410;-61
2023/10/03 05:10:09;;;;;;;10.07;4.82;;;;;;;27.54;44.23;100750.09;5009109;28;20038;-62
2023/10/03 05:12:35;;;;;;;11.88;4.88;;;;;;;27.50;43.91;100761.84;4992448;28;20058;-61
2023/10/03 05:15:00;;;;;;;11.75;4.82;;;;;;;27.48;44.59;100773.06;5009021;28;20035;-61
2023/10/03 05:17:27;;;;;;;12.68;4.53;;;;;;;27.45;44.38;100750.69;4993862;28;20038;-61
2023/10/03 05:19:53;;;;;;;9.73;4.72;;;;;;;27.45;44.63;100764.44;4992521;28;20422;-61
2023/10/03 05:22:20;;;;;;;10.18;4.32;;;;;;;27.45;44.76;100775.44;4992409;28;20053;-62
2023/10/03 05:24:49;;;;;;;13.85;4.68;;;;;;;27.44;44.53;100779.31;5008698;28;20510;-62
2023/10/03 05:27:14;;;;;;;11.98;5.10;;;;;;;27.44;44.65;100784.81;4992473;28;20042;-62
2023/10/03 05:29:40;;;;;;;9.13;4.15;;;;;;;27.45;44.69;100786.47;4992668;28;20026;-63
2023/10/03 05:32:05;;;;;;;8.52;4.43;;;;;;;27.47;44.75;100809.09;4992092;28;20053;-62
2023/10/03 05:34:31;;;;;;;8.68;3.80;;;;;;;27.49;44.87;100823.44;5008673;28;20073;-62
2023/10/03 05:36:56;;;;;;;9.90;3.72;;;;;;;27.50;44.31;100803.13;4992146;28;20045;-63
2023/10/03 05:39:22;;;;;;;6.55;2.90;;;;;;;27.48;44.18;100792.34;5008594;28;20031;-62
2023/10/03 05:41:47;;;;;;;9.73;3.70;;;;;;;27.45;44.68;100822.25;4993164;28;20061;-62
2023/10/03 05:44:13;;;;;;;10.50;3.22;;;;;;;27.41;44.64;100813.66;4976004;28;20046;-62
2023/10/03 05:46:42;;;;;;;5.70;3.45;;;;;;;27.38;44.48;100816.00;4991975;28;20503;-62
2023/10/03 05:49:09;;;;;;;10.65;3.63;;;;;;;27.34;44.53;100831.31;5008283;28;20052;-62
2023/10/03 05:51:34;;;;;;;6.78;2.83;;;;;;;27.32;45.39;100833.47;5008165;28;20528;-62
2023/10/03 05:54:02;;;;;;;6.78;2.80;;;;;;;27.30;44.53;100821.88;4991853;28;20070;-62
2023/10/03 05:56:27;;;;;;;4.55;2.80;;;;;;;27.26;45.02;100842.66;4991858;28;20034;-63
2023/10/03 05:58:52;;;;;;;11.63;3.35;;;;;;;27.25;45.25;100843.75;4993253;28;20042;-62
2023/10/03 06:01:18;;;;;;;15.68;3.03;;;;;;;27.27;44.71;100812.19;4993156;28;20030;-63
2023/10/03 06:03:43;;;;;;;6.55;2.70;;;;;;;27.27;45.21;100827.84;4991704;28;20061;-63
2023/10/03 06:06:10;;;;;;;7.75;3.00;;;;;;;27.27;44.62;100822.34;4993094;28;20117;-63
2023/10/03 06:08:35;;;;;;;9.05;3.28;;;;;;;27.24;45.24;100836.56;5007990;28;20121;-63
2023/10/03 06:11:03;;;;;;;10.15;2.85;;;;;;;27.23;44.65;100832.13;4991678;28;20110;-62
2023/10/03 06:13:29;;;;;;;6.22;2.58;;;;;;;27.19;44.76;100851.88;4975731;28;20564;-62
2023/10/03 06:15:58;;;;;;;6.18;2.50;;;;;;;27.17;45.23;100843.03;4991725;28;20038;-62
2023/10/03 06:18:24;;;;;;;8.20;2.45;;;;;;;27.14;45.25;100876.50;4993079;28;20027;-62
2023/10/03 06:20:50;;;;;;;11.80;3.67;;;;;;;27.07;44.61;100884.03;4993103;28;20027;-62
2023/10/03 06:23:15;;;;;;;14.20;2.60;;;;;;;27.05;44.35;100886.16;4991848;28;20081;-62
2023/10/03 06:25:41;;;;;;;5.80;2.33;;;;;;;27.01;44.85;100884.97;4992954;28;20073;-62
2023/10/03 06:28:06;;;;;;;9.25;2.78;;;;;;;27.02;45.04;100885.81;4991628;28;20064;-62
2023/10/03 06:30:31;;;;;;;5.80;3.03;;;;;;;26.99;44.52;100886.28;4992962;28;20097;-63
2023/10/03 06:32:58;;;;;;;5.45;2.53;;;;;;;26.93;44.65;100879.81;4992974;28;20034;-63
2023/10/03 06:35:23;;;;;;;8.93;2.75;;;;;;;26.93;45.09;100876.22;4991748;28;20034;-62
2023/10/03 06:37:48;;;;;;;5.10;2.67;;;;;;;26.91;45.00;100881.94;4991649;28;20448;-62
2023/10/03 06:40:16;;;;;;;8.93;2.83;;;;;;;26.92;44.76;100869.88;4991587;28;20035;-62
2023/10/03 06:42:41;;;;;;;4.88;2.35;;;;;;;26.97;44.92;100881.00;5007790;28;20061;-61
2023/10/03 06:45:15;;;;;;;7.05;2.40;;;;;;;27.00;45.25;100882.44;4991660;28;20399;-62
2023/10/03 06:47:41;;;;;;;5.47;2.30;;;;;;;27.03;45.42;100884.72;5006900;28;20045;-61
2023/10/03 06:50:07;;;;;;;6.43;2.40;;;;;;;27.10;45.12;100872.56;5007898;28;20030;-62
2023/10/03 06:52:34;;;;;;;6.55;2.38;;;;;;;27.15;44.53;100875.44;4991640;28;20030;-62
2023/10/03 06:54:59;;;;;;;7.55;2.45;;;;;;;27.25;44.23;100865.78;4991557;28;20034;-61
2023/10/03 06:57:25;;;;;;;7.93;2.30;;;;;;;27.32;44.53;100886.59;5007825;28;20080;-62
2023/10/03 06:59:53;;;;;;;6.82;2.40;;;;;;;27.39;44.01;100883.69;5007925;28;20035;-63
2023/10/03 07:02:18;;;;;;;5.50;2.90;;;;;;;27.44;44.46;100872.88;5011235;28;20022;-61
2023/10/03 07:04:44;;;;;;;4.40;2.42;;;;;;;27.61;43.72;100857.31;4996195;28;20417;-61
2023/10/03 07:07:10;;;;;;;4.18;2.47;;;;;;;27.68;44.51;100847.84;4994739;28;20041;-61
2023/10/03 07:09:38;;;;;;;6.88;2.47;;;;;;;27.68;44.45;100885.56;4994819;28;20035;-61
2023/10/03 07:12:04;;;;;;;6.30;3.17;;;;;;;27.77;44.84;100894.28;5010646;28;20431;-60
2023/10/03 07:14:30;;;;;;;10.07;2.83;;;;;;;27.88;44.79;100882.44;4996016;28;20042;-62
2023/10/03 07:16:56;;;;;;;6.78;2.70;;;;;;;27.89;44.34;100886.88;4994346;28;20058;-63
2023/10/03 07:19:23;;;;;;;3.50;2.55;;;;;;;28.10;44.38;100895.38;4994653;28;20026;-63
2023/10/03 07:21:51;;;;;;;7.10;2.70;;;;;;;28.17;43.36;100896.06;4994691;28;20026;-62
2023/10/03 07:24:17;;;;;;;4.07;2.47;;;;;;;28.22;44.16;100896.19;4978648;28;20192;-62
2023/10/03 07:26:43;;;;;;;6.35;2.05;;;;;;;28.19;43.71;100893.06;4995719;28;20022;-60
2023/10/03 07:29:08;;;;;;;4.57;2.20;;;;;;;28.18;44.51;100892.22;4995596;28;20068;-60
2023/10/03 07:31:33;;;;;;;12.43;3.28;;;;;;;28.14;44.27;100885.50;4994251;28;20037;-60
2023/10/03 07:33:59;;;;;;;5.15;2.20;;;;;;;28.12;43.77;100889.59;4994428;28;20033;-60
2023/10/03 07:36:25;;;;;;;6.45;2.65;;;;;;;28.08;44.79;100893.94;4994293;28;20153;-61
2023/10/03 07:38:51;;;;;;;3.90;2.45;;;;;;;28.06;44.62;100907.09;4994233;28;20487;-60
2023/10/03 07:41:19;;;;;;;8.82;2.78;;;;;;;27.99;44.35;100909.97;4978382;28;20046;-61
2023/10/03 07:43:48;;;;;;;3.60;2.47;;;;;;;27.94;44.85;100911.75;5010181;28;20514;-61
2023/10/03 07:46:22;;;;;;;7.30;2.85;;;;;;;27.86;44.20;100915.72;4994155;28;20413;-60
2023/10/03 07:48:52;;;;;;;4.20;2.38;;;;;;;27.76;44.69;100926.50;4994088;28;20034;-61
2023/10/03 07:51:19;;;;;;;4.75;2.50;;;;;;;27.64;45.18;100922.88;5010014;28;20034;-61
2023/10/03 07:53:45;;;;;;;7.72;2.38;;;;;;;27.56;45.45;100920.50;4994158;28;20113;-61
2023/10/03 07:56:25;;;;;;;5.10;2.42;;;;;;;27.47;45.02;100946.72;4994008;28;20034;-60
2023/10/03 07:58:54;;;;;;;8.50;2.78;;;;;;;27.40;46.02;100943.19;4994061;28;20027;-61
2023/10/03 08:01:24;;;;;;;7.32;3.22;;;;;;;27.31;45.35;100950.09;4995211;28;20042;-60
2023/10/03 08:03:50;;;;;;;5.25;2.55;;;;;;;27.18;45.57;100923.63;4994249;28;20054;-61
2023/10/03 08:06:15;;;;;;;9.38;3.70;;;;;;;27.24;45.13;100946.63;4995087;28;20039;-61
2023/10/03 08:08:44;;;;;;;7.15;2.30;;;;;;;27.17;45.47;100961.31;4993717;28;20394;-61
2023/10/03 08:11:13;;;;;;;5.78;2.50;;;;;;;27.13;46.16;100979.38;5009920;28;20030;-61
2023/10/03 08:13:40;;;;;;;4.03;2.58;;;;;;;27.10;46.18;100977.09;4993857;28;20034;-58
2023/10/03 08:16:06;;;;;;;4.22;2.83;;;;;;;27.11;46.21;100984.25;4993843;28;20026;-61
2023/10/03 08:18:36;;;;;;;6.90;2.33;;;;;;;27.13;46.09;100986.78;5010186;28;20457;-60
2023/10/03 08:21:03;;;;;;;6.22;3.50;;;;;;;27.16;46.00;100983.56;4994837;28;20030;-60
2023/10/03 08:23:32;;;;;;;6.13;2.50;;;;;;;27.18;45.94;100979.50;4993455;28;20031;-60
2023/10/03 08:26:01;;;;;;;7.43;2.75;;;;;;;27.21;45.69;100988.34;5009804;28;20447;-60
2023/10/03 08:28:28;;;;;;;4.18;2.65;;;;;;;27.21;46.59;100980.09;5009192;28;20061;-62
2023/10/03 08:30:55;;;;;;;6.90;2.03;;;;;;;27.21;46.08;100972.69;5009570;28;20506;-62
2023/10/03 08:33:20;;;;;;;10.23;2.38;;;;;;;27.26;46.05;100980.22;4993630;28;20045;-60
2023/10/03 08:35:46;;;;;;;6.80;2.30;;;;;;;27.19;46.05;100992.16;4993641;28;20030;-59
2023/10/03 08:38:13;;;;;;;6.47;2.05;;;;;;;27.19;46.15;100985.84;5010186;28;20042;-62
2023/10/03 08:40:45;;;;;;;6.40;2.03;;;;;;;27.19;46.02;100981.16;4977383;28;20390;-60
2023/10/03 08:43:11;;;;;;;6.43;2.38;;;;;;;27.24;46.26;100993.38;4994177;28;20041;-60
2023/10/03 08:45:41;;;;;;;8.50;2.20;;;;;;;27.26;46.49;100985.72;4993569;28;20037;-60
2023/10/03 08:48:08;;;;;;;3.80;2.22;;;;;;;27.28;46.25;100991.84;4993416;28;20041;-60
2023/10/03 08:50:46;;;;;;;5.85;2.83;;;;;;;27.26;46.09;100985.72;4977128;28;20135;-59
2023/10/03 08:53:12;;;;;;;2.20;1.75;;;;;;;27.25;46.38;100984.06;4993305;28;20552;-59
2023/10/03 08:55:49;;;;;;;6.85;2.10;;;;;;;27.26;45.48;100975.56;4994423;28;20038;-59
2023/10/03 08:58:18;;;;;;;5.22;2.28;;;;;;;27.32;46.47;100979.28;4992844;28;20030;-60
2023/10/03 09:00:49;;;;;;;4.68;2.60;;;;;;;27.34;46.30;100983.47;4992928;28;20057;-60
2023/10/03 09:03:16;;;;;;;5.40;1.95;;;;;;;27.35;45.85;100979.66;4992813;28;20521;-59
2023/10/03 09:05:42;;;;;;;6.15;2.67;;;;;;;27.32;46.50;100995.81;4992335;28;20034;-59
2023/10/03 09:08:11;;;;;;;6.00;2.28;;;;;;;27.27;46.81;101017.69;4992700;28;20033;-59
2023/10/03 09:10:57;;;;;;;4.95;2.00;;;;;;;27.27;46.40;101020.44;4992516;28;20393;-60
2023/10/03 09:13:26;;;;;;;7.13;2.03;;;;;;;27.22;46.60;101034.88;4989863;28;20395;-59
2023/10/03 09:16:08;;;;;;;5.55;2.00;;;;;;;27.19;46.61;101027.94;4994036;28;20030;-60
2023/10/03 09:18:41;;;;;;;5.05;1.80;;;;;;;27.18;46.52;101025.44;4992770;28;20077;-60
2023/10/03 09:21:23;;;;;;;3.58;2.17;;;;;;;27.21;45.83;101026.88;4992800;28;20518;-60
2023/10/03 09:24:02;;;;;;;;;;;;;;;27.33;45.49;101041.53;4992649;28;20045;-61
2023/10/03 09:26:45;;;;;;;5.28;2.30;;;;;;;27.42;46.45;101045.63;4992387;28;20305;-60
2023/10/03 09:29:18;;;;;;;8.48;2.22;;;;;;;27.49;45.30;101044.47;4993508;28;20502;-60
2023/10/03 09:31:45;;;;;;;11.43;2.40;;;;;;;27.51;46.23;101044.22;4992436;28;20050;-60
2023/10/03 09:34:13;;;;;;;6.65;2.60;;;;;;;27.42;46.31;101046.47;4992377;28;20038;-60
2023/10/03 09:36:40;;;;;;;7.40;3.03;;;;;;;27.37;46.81;101053.72;4992232;28;20503;-59
2023/10/03 09:39:07;;;;;;;5.30;2.25;;;;;;;27.16;46.40;101055.91;4992388;28;20034;-58
2023/10/03 09:41:38;;;;;;;5.90;2.42;;;;;;;27.02;47.02;101054.44;4993260;28;20030;-59
2023/10/03 09:44:05;;;;;;;4.03;2.17;;;;;;;26.86;46.98;101068.78;4992040;28;20422;-59
2023/10/03 09:46:41;;;;;;;2.85;1.38;;;;;;;26.73;46.83;101074.41;4976054;28;20110;-59
2023/10/03 09:49:10;;;;;;;4.38;1.23;;;;;;;26.62;47.41;101077.91;4977666;28;20041;-63
2023/10/03 09:51:51;;;;;;;1.55;0.88;;;;;;;26.58;46.81;101065.69;4992910;28;20506;-61
2023/10/03 09:54:30;;;;;;;4.65;1.10;;;;;;;26.47;47.23;101091.19;4992273;28;20030;-59
2023/10/03 09:56:57;;;;;;;2.67;1.23;;;;;;;26.29;47.21;101078.25;4977459;28;20454;-59
2023/10/03 09:59:24;;;;;;;2.15;1.42;;;;;;;26.16;47.26;101088.53;4992131;28;20509;-59
2023/10/03 10:01:54;;;;;;;2.88;2.05;;;;;;;26.12;47.25;101103.75;4992116;28;20121;-59
2023/10/03 10:04:21;;;;;;;3.60;1.60;;;;;;;26.13;47.15;101105.44;4960342;28;20046;-59
2023/10/03 10:06:50;;;;;;;5.50;1.88;;;;;;;26.13;47.27;101110.94;4991103;28;20042;-59
2023/10/03 10:09:28;;;;;;;5.47;1.63;;;;;;;26.16;47.25;101108.56;4992046;28;20042;-59
2023/10/03 10:12:21;;;;;;;2.45;1.52;;;;;;;26.30;47.40;101112.06;4975965;28;20034;-59
2023/10/03 10:15:00;;;;;;;3.45;1.10;;;;;;;26.42;47.55;101121.25;4989066;28;20125;-59
2023/10/03 10:17:45;;;;;;;3.40;1.70;;;;;;;26.49;47.35;101130.28;4993287;28;20058;-59
2023/10/03 10:20:13;;;;;;;6.65;1.70;;;;;;;26.54;46.78;101145.03;4993709;28;20174;-59
2023/10/03 10:23:02;;;;;;;3.35;1.92;;;;;;;26.59;47.13;101153.44;4993244;28;20406;-59
2023/10/03 10:25:41;;;;;;;2.50;1.35;;;;;;;26.57;46.73;101157.47;4992894;28;20453;-60
2023/10/03 10:28:09;;;;;;;4.32;1.60;;;;;;;26.57;46.90;101171.22;4991891;28;20041;-59
2023/10/03 10:30:36;;;;;;;4.18;1.45;;;;;;;26.57;47.49;101166.56;4991867;28;20094;-60
2023/10/03 10:33:16;;;;;;;3.63;1.40;;;;;;;26.62;47.55;101176.88;4981429;28;20045;-59
2023/10/03 10:35:55;;;;;;;5.45;1.52;;;;;;;26.70;47.04;101173.81;4993157;28;20490;-59
2023/10/03 10:38:29;;;;;;;5.07;2.22;;;;;;;26.72;47.26;101155.19;4986090;28;20043;-59
2023/10/03 10:41:22;;;;;;;5.82;1.80;;;;;;;26.77;47.04;101147.13;4975862;28;20027;-59
2023/10/03 10:44:06;;;;;;;4.97;1.35;;;;;;;26.69;47.33;101161.13;4977312;28;20043;-59
2023/10/03 10:46:36;;;;;;;5.68;1.40;;;;;;;26.66;46.71;101163.53;4977430;28;20031;-59
2023/10/03 10:49:06;;;;;;;1.40;1.30;;;;;;;26.65;47.03;101164.59;4976005;28;20061;-59
2023/10/03 10:51:33;;;;;;;1.30;1.20;;;;;;;26.64;46.94;101171.97;4976070;28;20122;-61
2023/10/03 10:54:00;;;;;;;3.03;1.35;;;;;;;26.63;46.62;101184.88;4975806;28;20114;-61
2023/10/03 10:56:28;;;;;;;4.05;1.17;;;;;;;26.66;46.53;101188.25;4977205;28;20526;-60
2023/10/03 10:59:01;;;;;;;2.90;0.80;;;;;;;26.66;46.33;101183.63;4960059;28;20696;-61
2023/10/03 11:01:27;;;;;;;2.10;0.80;;;;;;;26.70;46.64;101179.31;4975859;28;20038;-61
2023/10/03 11:03:53;;;;;;;2.63;0.82;;;;;;;26.75;46.89;101182.22;4992025;28;20034;-61
2023/10/03 11:06:19;;;;;;;1.60;0.75;;;;;;;26.79;46.28;101171.66;4991768;28;20051;-61
2023/10/03 11:08:45;;;;;;;3.20;0.73;;;;;;;26.72;46.10;101171.69;4975680;28;20507;-61
2023/10/03 11:11:10;;;;;;;3.97;1.25;;;;;;;26.63;46.31;101167.56;4975338;28;20125;-61
2023/10/03 11:13:47;;;;;;;0.70;0.38;;;;;;;26.54;46.78;101186.25;4991519;28;20035;-61
2023/10/03 11:16:21;;;;;;;1.33;0.95;;;;;;;26.44;46.24;101194.16;4976222;28;20388;-61
2023/10/03 11:18:46;;;;;;;1.35;0.10;;;;;;;26.26;46.16;101206.97;4976721;28;20035;-61
2023/10/03 11:21:12;;;;;;;1.25;0.10;;;;;;;26.05;46.90;101214.47;4991773;28;20090;-60
2023/10/03 11:23:37;;;;;;;0.68;0.15;;;;;;;25.90;47.02;101233.16;4975519;28;20034;-60
2023/10/03 11:26:05;;;;;;;0.98;0.25;;;;;;;25.81;46.86;101237.22;4975495;28;20035;-60